createdAt,value
2022-11-05T00:00:08.888Z,96971.94
2022-11-05T00:02:53.884Z,96974.53
2022-11-05T00:05:38.657Z,96983.97
2022-11-05T00:08:24.255Z,96981.03
2022-11-05T00:10:50.880Z,96990.19
2022-11-05T00:13:35.980Z,96986.66
2022-11-05T00:16:20.801Z,96991.56
2022-11-05T00:19:06.449Z,96996.00
2022-11-05T00:21:52.725Z,96989.91
2022-11-05T00:24:37.505Z,96993.22
2022-11-05T00:27:04.051Z,96995.56
2022-11-05T00:29:30.529Z,96988.63
2022-11-05T00:31:56.983Z,96988.63
2022-11-05T00:34:23.410Z,96983.41
2022-11-05T00:36:49.896Z,96986.94
2022-11-05T00:39:16.323Z,96995.91
2022-11-05T00:42:05.184Z,97000.09
2022-11-05T00:44:50.335Z,97001.19
2022-11-05T00:47:34.979Z,96996.44
2022-11-05T00:50:04.545Z,97002.28
2022-11-05T00:52:49.671Z,96997.31
2022-11-05T00:55:16.202Z,97006.38
2022-11-05T00:57:42.630Z,96996.47
2022-11-05T01:00:09.746Z,97001.81
2022-11-05T01:02:36.333Z,97008.03
2022-11-05T01:05:03.229Z,97014.69
2022-11-05T01:07:29.670Z,97018.38
2022-11-05T01:09:56.113Z,97014.63
2022-11-05T01:12:22.531Z,97019.06
2022-11-05T01:14:49.082Z,97022.19
2022-11-05T01:17:15.560Z,97021.06
2022-11-05T01:19:44.014Z,97022.66
2022-11-05T01:22:10.439Z,97022.91
2022-11-05T01:24:36.862Z,97020.91
2022-11-05T01:27:05.793Z,97018.78
2022-11-05T01:29:32.316Z,97019.97
2022-11-05T01:31:58.767Z,97019.69
2022-11-05T01:34:25.195Z,97014.97
2022-11-05T01:36:51.623Z,97010.38
2022-11-05T01:39:18.005Z,97012.94
2022-11-05T01:41:44.581Z,97019.34
2022-11-05T01:44:48.205Z,97015.00
2022-11-05T01:47:34.901Z,97019.09
2022-11-05T01:50:12.697Z,97023.13
2022-11-05T01:52:39.556Z,97023.28
2022-11-05T01:55:09.167Z,97027.91
2022-11-05T01:57:35.724Z,97031.19
2022-11-05T02:00:02.543Z,97037.94
2022-11-05T02:02:30.997Z,97040.63
2022-11-05T02:05:03.277Z,97042.84
2022-11-05T02:07:31.076Z,97047.13
2022-11-05T02:10:06.075Z,97058.03
2022-11-05T02:12:37.954Z,97069.31
2022-11-05T02:15:07.811Z,97057.66
2022-11-05T02:17:56.709Z,97068.22
2022-11-05T02:20:23.534Z,97064.13
2022-11-05T02:23:02.221Z,97072.63
2022-11-05T02:25:37.744Z,97067.13
2022-11-05T02:28:27.427Z,97060.38
2022-11-05T02:31:05.192Z,97057.53
2022-11-05T02:33:56.630Z,97070.66
2022-11-05T02:36:50.339Z,97073.88
2022-11-05T02:39:34.849Z,97070.69
2022-11-05T02:42:10.292Z,97070.91
2022-11-05T02:45:10.928Z,97075.56
2022-11-05T02:47:58.897Z,97071.53
2022-11-05T02:50:35.181Z,97073.44
2022-11-05T02:53:04.479Z,97075.34
2022-11-05T02:55:39.090Z,97070.91
2022-11-05T02:58:06.001Z,97073.94
2022-11-05T03:00:44.800Z,97079.66
2022-11-05T03:03:19.674Z,97080.31
2022-11-05T03:06:10.425Z,97085.38
2022-11-05T03:08:49.733Z,97098.03
2022-11-05T03:11:21.783Z,97107.31
2022-11-05T03:13:48.191Z,97107.31
2022-11-05T03:16:40.431Z,97109.72
2022-11-05T03:19:16.917Z,97119.72
2022-11-05T03:21:52.818Z,97116.28
2022-11-05T03:24:25.580Z,97118.41
2022-11-05T03:27:13.629Z,97118.22
2022-11-05T03:29:47.517Z,97119.91
2022-11-05T03:32:20.537Z,97127.09
2022-11-05T03:34:51.811Z,97126.38
2022-11-05T03:37:22.508Z,97135.25
2022-11-05T03:39:54.142Z,97133.25
2022-11-05T03:42:28.826Z,97134.88
2022-11-05T03:44:58.844Z,97138.97
2022-11-05T03:47:33.755Z,97129.28
2022-11-05T03:50:04.901Z,97141.41
2022-11-05T03:52:40.039Z,97134.34
2022-11-05T03:55:07.109Z,97138.81
2022-11-05T03:57:39.380Z,97133.88
2022-11-05T04:00:10.792Z,97128.81
2022-11-05T04:02:40.212Z,97136.56
2022-11-05T04:05:07.047Z,97149.72
2022-11-05T04:07:52.154Z,97157.13
2022-11-05T04:10:37.044Z,97146.50
2022-11-05T04:13:21.915Z,97150.47
2022-11-05T04:16:06.651Z,97151.84
2022-11-05T04:18:33.104Z,97152.69
2022-11-05T04:21:18.722Z,97152.69
2022-11-05T04:24:03.628Z,97152.69
2022-11-05T04:26:30.079Z,97157.34
2022-11-05T04:29:15.164Z,97146.81
2022-11-05T04:31:41.635Z,97146.41
2022-11-05T04:34:08.089Z,97156.03
2022-11-05T04:36:34.612Z,97159.19
2022-11-05T04:39:01.048Z,97160.84
2022-11-05T04:41:27.516Z,97166.00
2022-11-05T04:43:53.943Z,97165.69
2022-11-05T04:46:20.407Z,97173.84
2022-11-05T04:48:47.008Z,97170.59
2022-11-05T04:51:13.444Z,97170.72
2022-11-05T04:53:39.849Z,97169.53
2022-11-05T04:56:18.098Z,97173.78
2022-11-05T04:58:45.085Z,97174.72
2022-11-05T05:01:14.050Z,97176.47
2022-11-05T05:03:40.660Z,97189.66
2022-11-05T05:06:07.302Z,97182.56
2022-11-05T05:08:34.228Z,97183.44
2022-11-05T05:11:07.820Z,97185.50
2022-11-05T05:13:34.694Z,97183.44
2022-11-05T05:16:08.091Z,97185.16
2022-11-05T05:18:35.338Z,97179.25
2022-11-05T05:21:20.851Z,97180.72
2022-11-05T05:23:48.231Z,97186.25
2022-11-05T05:26:16.070Z,97185.16
2022-11-05T05:28:42.602Z,97184.75
2022-11-05T05:31:09.568Z,97190.50
2022-11-05T05:33:38.473Z,97184.84
2022-11-05T05:36:10.956Z,97189.25
2022-11-05T05:38:37.993Z,97193.00
2022-11-05T05:41:04.541Z,97192.09
2022-11-05T05:43:37.004Z,97194.94
2022-11-05T05:46:04.865Z,97192.25
2022-11-05T05:48:31.693Z,97199.59
2022-11-05T05:51:06.531Z,97199.97
2022-11-05T05:53:33.558Z,97198.31
2022-11-05T05:56:02.510Z,97200.22
2022-11-05T05:58:33.337Z,97199.56
2022-11-05T06:01:01.388Z,97207.34
2022-11-05T06:03:27.899Z,97216.03
2022-11-05T06:05:54.393Z,97217.00
2022-11-05T06:08:20.880Z,97223.63
2022-11-05T06:10:51.445Z,97214.19
2022-11-05T06:13:17.934Z,97218.28
2022-11-05T06:15:44.457Z,97226.22
2022-11-05T06:18:10.864Z,97227.97
2022-11-05T06:20:39.657Z,97236.16
2022-11-05T06:23:06.154Z,97250.88
2022-11-05T06:25:34.951Z,97254.22
2022-11-05T06:28:10.248Z,97254.22
2022-11-05T06:30:36.682Z,97253.75
2022-11-05T06:33:04.718Z,97256.06
2022-11-05T06:35:34.576Z,97252.53
2022-11-05T06:38:01.830Z,97266.97
2022-11-05T06:40:29.112Z,97270.41
2022-11-05T06:42:55.751Z,97276.16
2022-11-05T06:45:22.455Z,97279.13
2022-11-05T06:47:48.931Z,97290.72
2022-11-05T06:50:17.692Z,97285.34
2022-11-05T06:52:44.162Z,97289.06
2022-11-05T06:55:10.631Z,97292.19
2022-11-05T06:57:38.716Z,97296.75
2022-11-05T07:00:07.984Z,97295.00
2022-11-05T07:02:34.816Z,97300.94
2022-11-05T07:05:01.246Z,97309.06
2022-11-05T07:07:29.980Z,97311.03
2022-11-05T07:09:56.514Z,97322.72
2022-11-05T07:12:23.026Z,97317.97
2022-11-05T07:14:49.599Z,97318.28
2022-11-05T07:17:18.609Z,97323.66
2022-11-05T07:19:45.170Z,97327.06
2022-11-05T07:22:11.691Z,97326.88
2022-11-05T07:24:38.230Z,97329.47
2022-11-05T07:27:04.774Z,97336.53
2022-11-05T07:29:35.879Z,97345.22
2022-11-05T07:32:02.435Z,97339.25
2022-11-05T07:34:28.981Z,97341.28
2022-11-05T07:36:55.563Z,97347.75
2022-11-05T07:39:22.211Z,97351.00
2022-11-05T07:41:48.740Z,97350.38
2022-11-05T07:44:15.292Z,97349.53
2022-11-05T07:46:42.008Z,97360.28
2022-11-05T07:49:08.602Z,97360.53
2022-11-05T07:51:35.270Z,97361.00
2022-11-05T07:54:01.849Z,97356.78
2022-11-05T07:56:28.343Z,97358.59
2022-11-05T07:58:54.969Z,97357.88
2022-11-05T08:01:21.787Z,97360.59
2022-11-05T08:03:48.530Z,97357.22
2022-11-05T08:06:15.229Z,97360.72
2022-11-05T08:08:44.090Z,97360.56
2022-11-05T08:11:12.156Z,97363.88
2022-11-05T08:13:39.149Z,97364.47
2022-11-05T08:16:05.970Z,97360.50
2022-11-05T08:18:32.922Z,97367.69
2022-11-05T08:21:01.758Z,97370.59
2022-11-05T08:23:29.694Z,97365.41
2022-11-05T08:25:56.988Z,97360.44
2022-11-05T08:28:25.198Z,97365.66
2022-11-05T08:30:54.189Z,97369.00
2022-11-05T08:33:21.670Z,97373.75
2022-11-05T08:35:49.136Z,97376.16
2022-11-05T08:38:18.313Z,97372.50
2022-11-05T08:40:54.211Z,97373.13
2022-11-05T08:43:21.204Z,97374.81
2022-11-05T08:45:47.947Z,97374.47
2022-11-05T08:48:20.402Z,97382.28
2022-11-05T08:50:48.253Z,97382.94
2022-11-05T08:53:15.699Z,97387.72
2022-11-05T08:55:47.563Z,97390.22
2022-11-05T08:58:16.951Z,97397.50
2022-11-05T09:00:49.358Z,97394.25
2022-11-05T09:03:18.769Z,97394.06
2022-11-05T09:05:45.510Z,97398.56
2022-11-05T09:08:15.067Z,97401.25
2022-11-05T09:10:42.411Z,97403.75
2022-11-05T09:13:16.524Z,97401.44
2022-11-05T09:15:45.018Z,97400.19
2022-11-05T09:18:13.920Z,97406.66
2022-11-05T09:20:40.514Z,97407.91
2022-11-05T09:23:08.843Z,97410.38
2022-11-05T09:25:35.866Z,97414.56
2022-11-05T09:28:22.094Z,97423.31
2022-11-05T09:30:52.853Z,97422.59
2022-11-05T09:33:22.023Z,97421.75
2022-11-05T09:35:48.680Z,97422.72
2022-11-05T09:38:15.648Z,97417.06
2022-11-05T09:40:54.812Z,97422.88
2022-11-05T09:43:31.405Z,97425.41
2022-11-05T09:46:03.740Z,97427.78
2022-11-05T09:48:32.877Z,97428.19
2022-11-05T09:50:59.662Z,97426.72
2022-11-05T09:53:26.416Z,97421.84
2022-11-05T09:55:56.825Z,97424.34
2022-11-05T09:58:29.582Z,97423.72
2022-11-05T10:00:58.402Z,97423.72
2022-11-05T10:03:28.203Z,97430.94
2022-11-05T10:06:03.514Z,97432.09
2022-11-05T10:08:40.898Z,97430.72
2022-11-05T10:11:15.386Z,97435.63
2022-11-05T10:13:52.624Z,97439.06
2022-11-05T10:16:51.590Z,97441.25
2022-11-05T10:19:24.631Z,97439.34
2022-11-05T10:22:16.427Z,97435.59
2022-11-05T10:24:47.102Z,97440.91
2022-11-05T10:27:18.391Z,97447.38
2022-11-05T10:29:45.629Z,97447.13
2022-11-05T10:32:19.601Z,97450.50
2022-11-05T10:34:46.467Z,97453.91
2022-11-05T10:37:13.023Z,97461.13
2022-11-05T10:39:42.060Z,97461.22
2022-11-05T10:42:30.033Z,97467.56
2022-11-05T10:45:18.191Z,97459.63
2022-11-05T10:48:27.718Z,97467.22
2022-11-05T10:50:54.304Z,97458.56
2022-11-05T10:53:29.075Z,97458.03
2022-11-05T10:56:01.033Z,97456.00
2022-11-05T10:58:31.241Z,97453.72
2022-11-05T11:01:00.903Z,97455.19
2022-11-05T11:03:47.018Z,97452.75
2022-11-05T11:06:27.816Z,97452.47
2022-11-05T11:08:57.836Z,97461.22
2022-11-05T11:11:41.194Z,97465.34
2022-11-05T11:14:13.843Z,97463.97
2022-11-05T11:16:45.792Z,97456.69
2022-11-05T11:19:38.799Z,97468.03
2022-11-05T11:22:05.386Z,97465.75
2022-11-05T11:24:42.200Z,97466.81
2022-11-05T11:27:24.809Z,97474.53
2022-11-05T11:29:59.833Z,97462.53
2022-11-05T11:32:39.597Z,97454.91
2022-11-05T11:35:17.926Z,97450.75
2022-11-05T11:37:45.524Z,97460.25
2022-11-05T11:40:22.884Z,97458.50
2022-11-05T11:42:56.075Z,97459.44
2022-11-05T11:45:33.388Z,97464.53
2022-11-05T11:48:05.127Z,97463.72
2022-11-05T11:50:33.874Z,97462.88
2022-11-05T11:53:22.237Z,97461.00
2022-11-05T11:55:54.965Z,97459.03
2022-11-05T11:58:23.946Z,97459.34
2022-11-05T12:00:59.115Z,97465.59
2022-11-05T12:03:32.427Z,97476.41
2022-11-05T12:05:59.097Z,97471.78
2022-11-05T12:09:06.223Z,97482.34
2022-11-05T12:11:43.785Z,97483.19
2022-11-05T12:14:19.117Z,97482.03
2022-11-05T12:17:04.460Z,97476.41
2022-11-05T12:19:45.795Z,97476.34
2022-11-05T12:22:24.617Z,97475.88
2022-11-05T12:25:08.304Z,97479.44
2022-11-05T12:27:45.088Z,97483.22
2022-11-05T12:30:17.533Z,97478.50
2022-11-05T12:33:05.964Z,97483.31
2022-11-05T12:36:03.878Z,97482.53
2022-11-05T12:38:50.658Z,97494.47
2022-11-05T12:41:28.041Z,97494.75
2022-11-05T12:44:17.640Z,97485.78
2022-11-05T12:46:56.314Z,97481.16
2022-11-05T12:49:25.876Z,97495.44
2022-11-05T12:52:13.321Z,97493.41
2022-11-05T12:55:05.541Z,97491.44
2022-11-05T12:57:35.989Z,97493.81
2022-11-05T13:00:09.203Z,97503.69
2022-11-05T13:02:49.953Z,97499.06
2022-11-05T13:05:37.655Z,97504.19
2022-11-05T13:08:19.016Z,97502.41
2022-11-05T13:10:50.891Z,97501.25
2022-11-05T13:13:29.385Z,97504.59
2022-11-05T13:16:13.106Z,97507.19
2022-11-05T13:18:48.373Z,97507.63
2022-11-05T13:21:19.711Z,97500.66
2022-11-05T13:23:56.900Z,97496.09
2022-11-05T13:27:05.075Z,97497.16
2022-11-05T13:29:38.883Z,97492.53
2022-11-05T13:32:13.700Z,97492.38
2022-11-05T13:34:40.432Z,97487.94
2022-11-05T13:37:27.364Z,97495.97
2022-11-05T13:39:57.370Z,97492.44
2022-11-05T13:42:43.003Z,97495.38
2022-11-05T13:45:21.921Z,97493.41
2022-11-05T13:48:02.555Z,97496.31
2022-11-05T13:50:56.738Z,97493.63
2022-11-05T13:53:25.473Z,97496.97
2022-11-05T13:56:05.849Z,97499.34
2022-11-05T13:58:50.692Z,97505.25
2022-11-05T14:01:42.218Z,97513.03
2022-11-05T14:04:20.696Z,97501.06
2022-11-05T14:06:47.697Z,97509.47
2022-11-05T14:09:23.590Z,97504.53
2022-11-05T14:11:54.740Z,97510.53
2022-11-05T14:14:25.394Z,97516.63
2022-11-05T14:16:54.980Z,97513.31
2022-11-05T14:19:32.817Z,97509.44
2022-11-05T14:22:02.574Z,97512.59
2022-11-05T14:24:42.981Z,97511.97
2022-11-05T14:27:10.354Z,97517.66
2022-11-05T14:29:36.827Z,97517.31
2022-11-05T14:32:23.784Z,97517.06
2022-11-05T14:35:04.102Z,97525.38
2022-11-05T14:37:30.646Z,97533.59
2022-11-05T14:40:17.452Z,97524.81
2022-11-05T14:42:54.577Z,97526.91
2022-11-05T14:45:28.162Z,97532.63
2022-11-05T14:47:57.798Z,97546.19
2022-11-05T14:50:41.954Z,97547.66
2022-11-05T14:53:26.883Z,97547.09
2022-11-05T14:56:05.310Z,97552.66
2022-11-05T14:58:35.571Z,97544.81
2022-11-05T15:01:08.466Z,97547.09
2022-11-05T15:03:47.151Z,97552.97
2022-11-05T15:06:35.277Z,97550.16
2022-11-05T15:09:29.720Z,97556.13
2022-11-05T15:11:56.603Z,97553.81
2022-11-05T15:14:30.617Z,97558.28
2022-11-05T15:17:04.109Z,97559.25
2022-11-05T15:19:36.992Z,97564.97
2022-11-05T15:22:10.365Z,97562.59
2022-11-05T15:24:37.454Z,97566.03
2022-11-05T15:27:19.064Z,97566.88
2022-11-05T15:29:45.875Z,97563.41
2022-11-05T15:32:22.953Z,97558.63
2022-11-05T15:34:54.469Z,97565.94
2022-11-05T15:37:24.949Z,97567.72
2022-11-05T15:39:53.871Z,97566.56
2022-11-05T15:42:26.495Z,97568.31
2022-11-05T15:44:57.230Z,97569.38
2022-11-05T15:47:34.185Z,97565.94
2022-11-05T15:50:15.126Z,97570.50
2022-11-05T15:52:54.568Z,97568.22
2022-11-05T15:55:24.435Z,97573.03
2022-11-05T15:58:20.203Z,97579.06
2022-11-05T16:00:48.463Z,97574.91
2022-11-05T16:03:35.391Z,97575.31
2022-11-05T16:06:02.627Z,97585.31
2022-11-05T16:08:32.616Z,97583.88
2022-11-05T16:11:03.974Z,97589.00
2022-11-05T16:13:30.487Z,97594.53
2022-11-05T16:15:59.924Z,97592.84
2022-11-05T16:18:33.265Z,97598.47
2022-11-05T16:21:12.014Z,97590.63
2022-11-05T16:24:00.579Z,97588.03
2022-11-05T16:27:02.203Z,97598.91
2022-11-05T16:29:39.176Z,97603.38
2022-11-05T16:32:16.728Z,97601.91
2022-11-05T16:34:50.964Z,97608.69
2022-11-05T16:37:21.052Z,97611.78
2022-11-05T16:39:47.933Z,97614.50
2022-11-05T16:42:38.540Z,97612.00
2022-11-05T16:45:06.792Z,97621.06
2022-11-05T16:47:33.432Z,97627.66
2022-11-05T16:49:59.999Z,97630.66
2022-11-05T16:52:26.576Z,97633.06
2022-11-05T16:54:53.353Z,97637.22
2022-11-05T16:57:32.082Z,97633.88
2022-11-05T17:00:00.404Z,97637.66
2022-11-05T17:02:27.534Z,97637.31
2022-11-05T17:04:54.482Z,97644.28
2022-11-05T17:07:21.082Z,97644.00
2022-11-05T17:09:47.676Z,97644.34
2022-11-05T17:12:14.787Z,97641.38
2022-11-05T17:14:41.568Z,97645.94
2022-11-05T17:17:08.143Z,97640.19
2022-11-05T17:19:34.708Z,97648.31
2022-11-05T17:22:01.290Z,97649.22
2022-11-05T17:24:27.870Z,97646.13
2022-11-05T17:26:54.724Z,97666.03
2022-11-05T17:29:23.848Z,97660.72
2022-11-05T17:31:50.547Z,97662.47
2022-11-05T17:34:18.294Z,97667.75
2022-11-05T17:36:45.110Z,97670.06
2022-11-05T17:39:14.195Z,97667.53
2022-11-05T17:41:40.715Z,97674.78
2022-11-05T17:44:10.305Z,97666.25
2022-11-05T17:46:37.030Z,97666.44
2022-11-05T17:49:03.511Z,97668.84
2022-11-05T17:51:30.086Z,97662.25
2022-11-05T17:53:56.652Z,97670.44
2022-11-05T17:56:32.477Z,97670.16
2022-11-05T17:59:03.637Z,97675.19
2022-11-05T18:01:32.893Z,97677.06
2022-11-05T18:04:03.777Z,97681.03
2022-11-05T18:06:34.798Z,97683.19
2022-11-05T18:09:01.668Z,97685.41
2022-11-05T18:11:30.961Z,97684.28
2022-11-05T18:13:57.563Z,97695.16
2022-11-05T18:16:24.089Z,97694.16
2022-11-05T18:18:53.203Z,97690.81
2022-11-05T18:21:19.858Z,97695.06
2022-11-05T18:23:46.524Z,97699.38
2022-11-05T18:26:14.989Z,97698.50
2022-11-05T18:28:42.002Z,97703.41
2022-11-05T18:31:22.761Z,97711.06
2022-11-05T18:33:50.423Z,97708.84
2022-11-05T18:36:18.276Z,97708.53
2022-11-05T18:38:45.009Z,97709.78
2022-11-05T18:41:14.247Z,97716.72
2022-11-05T18:43:41.134Z,97703.63
2022-11-05T18:46:08.151Z,97710.69
2022-11-05T18:48:37.253Z,97707.78
2022-11-05T18:51:09.434Z,97706.75
2022-11-05T18:53:36.405Z,97710.84
2022-11-05T18:56:15.286Z,97717.84
2022-11-05T18:58:42.666Z,97710.69
2022-11-05T19:01:17.552Z,97715.16
2022-11-05T19:03:44.653Z,97719.09
2022-11-05T19:06:11.567Z,97726.16
2022-11-05T19:08:38.495Z,97718.63
2022-11-05T19:11:14.454Z,97724.22
2022-11-05T19:13:41.736Z,97727.28
2022-11-05T19:16:10.270Z,97731.72
2022-11-05T19:18:37.404Z,97724.50
2022-11-05T19:21:09.171Z,97729.03
2022-11-05T19:23:38.958Z,97728.75
2022-11-05T19:26:07.473Z,97733.78
2022-11-05T19:28:34.472Z,97728.75
2022-11-05T19:31:01.084Z,97734.72
2022-11-05T19:33:28.608Z,97730.53
2022-11-05T19:35:55.560Z,97732.94
2022-11-05T19:38:22.851Z,97726.16
2022-11-05T19:40:52.291Z,97730.72
2022-11-05T19:43:21.113Z,97734.81
2022-11-05T19:45:47.998Z,97742.16
2022-11-05T19:48:19.102Z,97742.34
2022-11-05T19:50:46.723Z,97736.47
2022-11-05T19:53:13.346Z,97741.78
2022-11-05T19:55:40.938Z,97740.94
2022-11-05T19:58:08.656Z,97735.00
2022-11-05T20:00:35.322Z,97731.19
2022-11-05T20:03:02.507Z,97729.78
2022-11-05T20:05:29.226Z,97740.03
2022-11-05T20:07:56.561Z,97727.66
2022-11-05T20:10:23.090Z,97729.03
2022-11-05T20:12:49.894Z,97736.56
2022-11-05T20:15:18.689Z,97735.94
2022-11-05T20:17:52.908Z,97730.44
2022-11-05T20:20:20.185Z,97729.25
2022-11-05T20:22:46.798Z,97726.66
2022-11-05T20:25:13.444Z,97730.81
2022-11-05T20:27:40.044Z,97732.88
2022-11-05T20:30:07.324Z,97732.88
2022-11-05T20:32:33.955Z,97728.41
2022-11-05T20:35:00.486Z,97735.94
2022-11-05T20:37:27.079Z,97733.69
2022-11-05T20:39:56.134Z,97742.78
2022-11-05T20:42:22.858Z,97743.16
2022-11-05T20:44:49.497Z,97736.94
2022-11-05T20:47:16.197Z,97744.94
2022-11-05T20:49:42.810Z,97741.78
2022-11-05T20:52:09.485Z,97738.16
2022-11-05T20:54:36.034Z,97745.03
2022-11-05T20:57:02.585Z,97750.91
2022-11-05T20:59:29.242Z,97744.56
2022-11-05T21:01:58.088Z,97753.41
2022-11-05T21:04:24.714Z,97754.25
2022-11-05T21:06:51.321Z,97755.16
2022-11-05T21:09:20.448Z,97750.69
2022-11-05T21:12:05.650Z,97749.13
2022-11-05T21:14:32.529Z,97752.22
2022-11-05T21:16:59.057Z,97759.63
2022-11-05T21:19:25.674Z,97755.34
2022-11-05T21:21:52.214Z,97752.47
2022-11-05T21:24:18.737Z,97758.31
2022-11-05T21:26:45.318Z,97763.53
2022-11-05T21:29:11.975Z,97759.44
2022-11-05T21:31:38.592Z,97760.00
2022-11-05T21:34:05.257Z,97749.03
2022-11-05T21:36:32.070Z,97753.69
2022-11-05T21:38:58.771Z,97751.81
2022-11-05T21:41:27.951Z,97752.00
2022-11-05T21:43:54.518Z,97757.47
2022-11-05T21:46:21.428Z,97756.91
2022-11-05T21:48:48.110Z,97760.31
2022-11-05T21:51:43.776Z,97764.75
2022-11-05T21:54:30.395Z,97773.31
2022-11-05T21:57:16.393Z,97759.38
2022-11-05T21:59:48.587Z,97762.91
2022-11-05T22:02:23.464Z,97775.38
2022-11-05T22:04:53.194Z,97756.16
2022-11-05T22:07:25.089Z,97760.66
2022-11-05T22:09:51.928Z,97751.63
2022-11-05T22:12:18.563Z,97750.88
2022-11-05T22:14:45.391Z,97758.06
2022-11-05T22:17:12.500Z,97761.41
2022-11-05T22:19:39.135Z,97760.28
2022-11-05T22:22:09.158Z,97759.72
2022-11-05T22:24:38.490Z,97763.34
2022-11-05T22:27:14.822Z,97762.66
2022-11-05T22:29:41.885Z,97770.94
2022-11-05T22:32:10.438Z,97766.06
2022-11-05T22:34:36.993Z,97767.53
2022-11-05T22:37:03.994Z,97767.25
2022-11-05T22:39:30.641Z,97769.28
2022-11-05T22:41:58.249Z,97767.25
2022-11-05T22:44:26.129Z,97771.69
2022-11-05T22:46:53.478Z,97769.16
2022-11-05T22:49:22.442Z,97776.06
2022-11-05T22:51:51.470Z,97780.31
2022-11-05T22:54:18.079Z,97780.41
2022-11-05T22:56:50.332Z,97778.41
2022-11-05T22:59:16.897Z,97774.56
2022-11-05T23:01:44.965Z,97779.91
2022-11-05T23:04:12.930Z,97772.22
2022-11-05T23:06:58.053Z,97767.59
2022-11-05T23:10:03.148Z,97771.03
2022-11-05T23:12:33.402Z,97780.31
2022-11-05T23:15:05.741Z,97777.53
2022-11-05T23:17:51.534Z,97775.03
2022-11-05T23:20:39.863Z,97776.06
2022-11-05T23:23:28.643Z,97777.66
2022-11-05T23:25:59.998Z,97779.50
2022-11-05T23:28:29.890Z,97782.72
2022-11-05T23:31:17.519Z,97773.13
2022-11-05T23:33:46.506Z,97777.72
2022-11-05T23:36:31.514Z,97776.16
2022-11-05T23:38:58.198Z,97766.78
2022-11-05T23:41:43.320Z,97767.59
2022-11-05T23:44:28.242Z,97762.13
2022-11-05T23:47:13.060Z,97762.47
2022-11-05T23:49:39.592Z,97765.13
2022-11-05T23:52:06.102Z,97762.88
2022-11-05T23:54:32.663Z,97764.53
2022-11-05T23:56:59.216Z,97770.13
2022-11-05T23:59:25.796Z,97772.31
